createdAt,value
2023-05-10T00:01:41.184Z,99902.66
2023-05-10T00:06:42.835Z,99905.09
2023-05-10T00:11:44.646Z,99907.59
2023-05-10T00:16:47.686Z,99899.25
2023-05-10T00:21:49.434Z,99910.19
2023-05-10T00:26:50.982Z,99910.13
2023-05-10T00:31:53.999Z,99917.56
2023-05-10T00:36:55.825Z,99911.38
2023-05-10T00:41:57.411Z,99915.75
2023-05-10T00:47:00.929Z,99921.75
2023-05-10T00:52:02.697Z,99925.06
2023-05-10T00:57:04.311Z,99925.72
2023-05-10T01:02:07.642Z,99922.25
2023-05-10T01:07:09.362Z,99923.75
2023-05-10T01:12:11.036Z,99919.38
2023-05-10T01:17:14.343Z,99920.09
2023-05-10T01:22:46.320Z,99930.28
2023-05-10T01:28:15.328Z,99931.13
2023-05-10T01:33:20.083Z,99936.38
2023-05-10T01:38:30.671Z,99932.34
2023-05-10T01:43:36.194Z,99941.09
2023-05-10T01:48:42.488Z,99939.22
2023-05-10T01:53:45.566Z,99940.84
2023-05-10T01:58:49.327Z,99941.81
2023-05-10T02:03:53.006Z,99952.09
2023-05-10T02:08:54.973Z,99960.75
2023-05-10T02:13:57.293Z,99966.84
2023-05-10T02:19:04.636Z,99969.53
2023-05-10T02:24:06.843Z,99981.78
2023-05-10T02:29:09.042Z,99988.47
2023-05-10T02:34:12.413Z,99982.66
2023-05-10T02:39:14.441Z,99981.06
2023-05-10T02:44:18.732Z,99975.03
2023-05-10T02:49:23.348Z,99988.81
2023-05-10T02:54:28.141Z,99979.09
2023-05-10T02:59:29.784Z,99980.06
2023-05-10T03:04:32.796Z,99975.03
2023-05-10T03:09:34.637Z,99985.34
2023-05-10T03:14:45.906Z,99986.69
2023-05-10T03:19:54.384Z,99996.09
2023-05-10T03:24:57.580Z,99985.53
2023-05-10T03:30:02.783Z,99989.38
2023-05-10T03:35:09.264Z,99990.25
2023-05-10T03:40:11.633Z,100005.09
2023-05-10T03:45:16.175Z,100007.22
2023-05-10T03:50:19.594Z,100008.66
2023-05-10T03:55:21.533Z,100013.09
2023-05-10T04:00:23.385Z,100005.41
2023-05-10T04:05:29.972Z,100006.97
2023-05-10T04:10:32.018Z,99995.41
2023-05-10T04:15:33.698Z,99998.34
2023-05-10T04:20:36.740Z,100002.16
2023-05-10T04:25:38.365Z,100006.00
2023-05-10T04:30:40.645Z,100014.81
2023-05-10T04:35:43.586Z,100012.88
2023-05-10T04:40:45.210Z,100014.94
2023-05-10T04:45:46.913Z,100007.25
2023-05-10T04:50:49.873Z,100025.09
2023-05-10T04:55:51.492Z,100032.31
2023-05-10T05:00:53.196Z,100032.00
2023-05-10T05:05:56.104Z,100027.41
2023-05-10T05:10:57.794Z,100026.31
2023-05-10T05:16:01.511Z,100026.31
2023-05-10T05:21:04.526Z,100036.69
2023-05-10T05:26:06.203Z,100047.25
2023-05-10T05:31:08.052Z,100052.53
2023-05-10T05:36:11.069Z,100052.75
2023-05-10T05:41:12.809Z,100058.03
2023-05-10T05:46:14.437Z,100054.78
2023-05-10T05:51:17.387Z,100063.72
2023-05-10T05:56:19.042Z,100065.25
2023-05-10T06:01:21.094Z,100073.94
2023-05-10T06:06:24.138Z,100086.03
2023-05-10T06:11:26.588Z,100086.19
2023-05-10T06:16:28.220Z,100094.72
2023-05-10T06:21:31.136Z,100091.13
2023-05-10T06:26:32.832Z,100099.88
2023-05-10T06:31:34.489Z,100100.69
2023-05-10T06:36:37.410Z,100106.66
2023-05-10T06:41:39.240Z,100103.13
2023-05-10T06:46:40.825Z,100109.44
2023-05-10T06:51:43.911Z,100114.31
2023-05-10T06:56:45.488Z,100107.44
2023-05-10T07:01:47.117Z,100120.59
2023-05-10T07:06:50.084Z,100126.78
2023-05-10T07:11:51.780Z,100126.84
2023-05-10T07:16:53.448Z,100128.50
2023-05-10T07:21:56.400Z,100130.84
2023-05-10T07:26:58.014Z,100129.41
2023-05-10T07:32:00.006Z,100140.22
2023-05-10T07:37:03.050Z,100136.31
2023-05-10T07:42:04.834Z,100144.41
2023-05-10T07:47:06.514Z,100147.56
2023-05-10T07:52:09.548Z,100157.22
2023-05-10T07:57:11.167Z,100155.66
2023-05-10T08:02:12.830Z,100139.81
2023-05-10T08:07:15.878Z,100138.78
2023-05-10T08:12:17.518Z,100146.09
2023-05-10T08:17:19.948Z,100143.25
2023-05-10T08:22:23.449Z,100140.59
2023-05-10T08:27:24.984Z,100153.50
2023-05-10T08:32:26.634Z,100146.44
2023-05-10T08:37:31.871Z,100157.81
2023-05-10T08:42:35.686Z,100152.47
2023-05-10T08:47:38.151Z,100148.63
2023-05-10T08:52:41.399Z,100148.44
2023-05-10T08:57:43.129Z,100160.88
2023-05-10T09:02:45.437Z,100159.13
2023-05-10T09:07:51.224Z,100168.63
2023-05-10T09:12:53.299Z,100168.31
2023-05-10T09:17:55.584Z,100185.16
2023-05-10T09:22:58.652Z,100180.78
2023-05-10T09:28:00.441Z,100195.88
2023-05-10T09:33:02.489Z,100181.53
2023-05-10T09:38:05.867Z,100197.25
2023-05-10T09:43:08.252Z,100196.47
2023-05-10T09:48:09.901Z,100199.97
2023-05-10T09:53:15.585Z,100200.50
2023-05-10T09:58:17.314Z,100215.22
2023-05-10T10:03:20.929Z,100222.16
2023-05-10T10:08:24.060Z,100215.22
2023-05-10T10:13:25.721Z,100217.78
2023-05-10T10:18:27.412Z,100221.63
2023-05-10T10:23:30.408Z,100214.78
2023-05-10T10:28:37.130Z,100210.75
2023-05-10T10:33:45.708Z,100209.09
2023-05-10T10:39:02.729Z,100210.88
2023-05-10T10:44:36.578Z,100203.59
2023-05-10T10:49:49.714Z,100185.63
2023-05-10T10:54:53.354Z,100202.34
2023-05-10T11:00:19.776Z,100202.28
2023-05-10T11:05:39.367Z,100210.56
2023-05-10T11:10:51.261Z,100202.09
2023-05-10T11:15:52.960Z,100210.97
2023-05-10T11:20:58.069Z,100217.19
2023-05-10T11:26:01.525Z,100208.75
2023-05-10T11:31:03.158Z,100214.78
2023-05-10T11:36:05.191Z,100215.22
2023-05-10T11:41:09.234Z,100212.84
2023-05-10T11:46:13.346Z,100212.66
2023-05-10T11:51:15.022Z,100214.84
2023-05-10T11:56:18.023Z,100209.41
2023-05-10T12:01:19.695Z,100219.31
2023-05-10T12:06:22.262Z,100212.78
2023-05-10T12:11:27.794Z,100215.59
2023-05-10T12:16:30.393Z,100221.84
2023-05-10T12:21:32.181Z,100218.81
2023-05-10T12:26:36.177Z,100223.59
2023-05-10T12:31:50.462Z,100222.59
2023-05-10T12:36:52.946Z,100227.28
2023-05-10T12:41:55.889Z,100233.47
2023-05-10T12:46:57.612Z,100240.25
2023-05-10T12:51:59.271Z,100235.25
2023-05-10T12:57:02.296Z,100238.94
2023-05-10T13:02:04.024Z,100243.00
2023-05-10T13:07:05.851Z,100247.00
2023-05-10T13:12:10.104Z,100248.66
2023-05-10T13:17:12.083Z,100244.06
2023-05-10T13:22:13.751Z,100248.91
2023-05-10T13:27:16.703Z,100242.31
2023-05-10T13:32:18.347Z,100238.50
2023-05-10T13:37:19.961Z,100244.41
2023-05-10T13:42:23.290Z,100232.41
2023-05-10T13:47:24.983Z,100232.03
2023-05-10T13:52:27.157Z,100241.88
2023-05-10T13:57:30.161Z,100235.31
2023-05-10T14:02:31.928Z,100235.63
2023-05-10T14:07:33.720Z,100235.22
2023-05-10T14:12:36.732Z,100230.44
2023-05-10T14:17:38.433Z,100228.53
2023-05-10T14:22:40.154Z,100224.63
2023-05-10T14:27:43.225Z,100223.69
2023-05-10T14:32:44.984Z,100219.16
2023-05-10T14:37:46.932Z,100209.84
2023-05-10T14:42:50.717Z,100214.56
2023-05-10T14:47:52.521Z,100207.69
2023-05-10T14:52:54.237Z,100205.75
2023-05-10T14:57:57.175Z,100208.41
2023-05-10T15:02:58.895Z,100213.69
2023-05-10T15:08:01.209Z,100206.38
2023-05-10T15:13:04.366Z,100204.63
2023-05-10T15:18:06.063Z,100203.06
2023-05-10T15:23:07.898Z,100205.00
2023-05-10T15:28:10.873Z,100206.59
2023-05-10T15:33:12.490Z,100202.69
2023-05-10T15:38:14.076Z,100210.38
2023-05-10T15:43:17.122Z,100215.88
2023-05-10T15:48:19.169Z,100212.88
2023-05-10T15:53:20.834Z,100220.06
2023-05-10T15:58:23.957Z,100221.75
2023-05-10T16:03:25.661Z,100225.22
2023-05-10T16:08:27.886Z,100229.91
2023-05-10T16:13:30.924Z,100233.22
2023-05-10T16:18:32.713Z,100235.38
2023-05-10T16:23:34.492Z,100240.28
2023-05-10T16:28:37.504Z,100237.00
2023-05-10T16:33:39.233Z,100238.63
2023-05-10T16:38:40.859Z,100237.13
2023-05-10T16:43:43.870Z,100240.56
2023-05-10T16:48:45.493Z,100236.16
2023-05-10T16:53:47.148Z,100240.19
2023-05-10T16:58:50.154Z,100242.19
2023-05-10T17:03:51.908Z,100243.56
2023-05-10T17:08:53.631Z,100243.09
2023-05-10T17:13:56.670Z,100246.03
2023-05-10T17:18:58.429Z,100239.84
2023-05-10T17:24:00.189Z,100248.34
2023-05-10T17:29:03.563Z,100248.56
2023-05-10T17:34:05.846Z,100257.75
2023-05-10T17:39:07.657Z,100256.19
2023-05-10T17:44:10.673Z,100264.31
2023-05-10T17:49:12.345Z,100264.63
2023-05-10T17:54:14.005Z,100265.31
2023-05-10T17:59:17.316Z,100272.94
2023-05-10T18:04:18.962Z,100283.41
2023-05-10T18:09:20.678Z,100270.97
2023-05-10T18:14:39.117Z,100276.06
2023-05-10T18:19:42.564Z,100273.28
2023-05-10T18:24:44.266Z,100278.25
2023-05-10T18:29:47.294Z,100280.72
2023-05-10T18:34:48.990Z,100286.72
2023-05-10T18:39:50.801Z,100288.22
2023-05-10T18:44:54.693Z,100286.84
2023-05-10T18:49:56.407Z,100289.03
2023-05-10T18:54:58.107Z,100285.75
2023-05-10T19:00:01.102Z,100290.72
2023-05-10T19:05:02.995Z,100299.94
2023-05-10T19:10:07.447Z,100312.56
2023-05-10T19:15:11.318Z,100269.44
2023-05-10T19:20:13.211Z,100326.31
2023-05-10T19:25:15.531Z,100327.19
2023-05-10T19:30:20.241Z,100327.13
2023-05-10T19:35:22.007Z,100332.53
2023-05-10T19:40:27.361Z,100277.88
2023-05-10T19:45:30.579Z,100331.31
2023-05-10T19:50:32.431Z,100348.94
2023-05-10T19:55:34.176Z,100352.47
2023-05-10T20:00:37.388Z,100346.50
2023-05-10T20:05:39.045Z,100345.63
2023-05-10T20:10:40.695Z,100351.72
2023-05-10T20:15:43.870Z,100347.50
2023-05-10T20:20:45.655Z,100357.91
2023-05-10T20:25:47.476Z,100362.72
2023-05-10T20:30:53.181Z,100362.59
2023-05-10T20:35:55.025Z,100372.72
2023-05-10T20:40:56.646Z,100377.84
2023-05-10T20:45:59.648Z,100375.69
2023-05-10T20:51:01.604Z,100372.38
2023-05-10T20:56:03.631Z,100369.88
2023-05-10T21:01:06.798Z,100380.91
2023-05-10T21:06:08.475Z,100383.41
2023-05-10T21:11:10.127Z,100387.16
2023-05-10T21:16:13.142Z,100389.94
2023-05-10T21:21:14.820Z,100363.00
2023-05-10T21:26:16.776Z,100380.00
2023-05-10T21:31:19.789Z,100373.53
2023-05-10T21:36:21.525Z,100372.94
2023-05-10T21:41:23.756Z,100376.53
2023-05-10T21:46:26.870Z,100369.50
2023-05-10T21:51:28.708Z,100378.09
2023-05-10T21:56:30.296Z,100383.09
2023-05-10T22:01:33.830Z,100381.41
2023-05-10T22:06:35.708Z,100373.53
2023-05-10T22:11:37.325Z,100376.59
2023-05-10T22:16:40.365Z,100392.59
2023-05-10T22:21:42.052Z,100390.94
2023-05-10T22:26:43.723Z,100391.81
2023-05-10T22:31:46.637Z,100393.28
2023-05-10T22:36:48.296Z,100387.78
2023-05-10T22:41:49.970Z,100388.22
2023-05-10T22:46:53.077Z,100387.13
2023-05-10T22:51:54.675Z,100384.28
2023-05-10T22:56:56.510Z,100390.16
2023-05-10T23:01:59.664Z,100393.25
2023-05-10T23:07:01.347Z,100393.94
2023-05-10T23:12:03.129Z,100393.22
2023-05-10T23:17:06.159Z,100408.56
2023-05-10T23:22:08.308Z,100411.84
2023-05-10T23:27:09.941Z,100416.50
2023-05-10T23:32:13.012Z,100408.03
2023-05-10T23:37:14.728Z,100411.69
2023-05-10T23:42:16.372Z,100415.88
2023-05-10T23:47:19.495Z,100411.19
2023-05-10T23:52:21.094Z,100395.47
2023-05-10T23:57:22.798Z,100410.78
